createdAt,value
2023-03-22T00:05:09.007Z,6.60
2023-03-22T00:19:08.520Z,6.60
2023-03-22T00:33:08.506Z,6.50
2023-03-22T00:47:08.533Z,7.30
2023-03-22T01:01:08.657Z,6.10
2023-03-22T01:15:08.567Z,5.60
2023-03-22T01:29:08.602Z,5.90
2023-03-22T01:43:08.618Z,5.80
2023-03-22T01:57:08.627Z,5.00
2023-03-22T02:11:08.633Z,5.10
2023-03-22T02:25:08.669Z,4.90
2023-03-22T02:39:08.669Z,4.60
2023-03-22T02:53:08.669Z,4.55
2023-03-22T03:07:08.682Z,4.50
2023-03-22T03:21:08.751Z,4.10
2023-03-22T03:35:09.369Z,4.30
2023-03-22T03:49:08.746Z,4.15
2023-03-22T04:03:08.753Z,4.00
2023-03-22T04:17:08.779Z,3.90
2023-03-22T04:31:08.784Z,4.00
2023-03-22T04:45:08.784Z,4.00
2023-03-22T04:59:08.810Z,4.20
2023-03-22T05:14:08.936Z,3.90
2023-03-22T05:29:08.846Z,3.65
2023-03-22T05:44:09.028Z,4.40
2023-03-22T05:59:08.921Z,3.60
2023-03-22T06:14:08.894Z,3.90
2023-03-22T06:29:08.910Z,4.00
2023-03-22T06:44:08.933Z,5.40
2023-03-22T06:59:08.960Z,7.20
2023-03-22T07:14:09.061Z,4.30
2023-03-22T07:29:09.074Z,3.80
2023-03-22T07:44:17.538Z,3.05
2023-03-22T07:59:09.032Z,3.30
2023-03-22T08:14:09.121Z,3.90
2023-03-22T08:29:09.022Z,3.50
2023-03-22T08:44:09.134Z,4.80
2023-03-22T08:59:09.053Z,5.80
2023-03-22T09:14:09.153Z,5.00
2023-03-22T09:29:09.179Z,5.90
2023-03-22T09:44:09.186Z,6.85
2023-03-22T09:59:09.193Z,7.00
2023-03-22T10:15:09.315Z,8.10
2023-03-22T10:30:09.328Z,7.50
2023-03-22T10:45:09.263Z,6.70
2023-03-22T11:00:09.326Z,6.10
2023-03-22T11:15:10.370Z,7.30
2023-03-22T11:30:09.224Z,5.70
2023-03-22T11:45:09.376Z,5.70
2023-03-22T12:00:09.447Z,6.40
2023-03-22T12:15:09.397Z,7.20
2023-03-22T12:30:09.424Z,9.20
2023-03-22T12:45:09.302Z,8.10
2023-03-22T13:00:09.333Z,10.40
2023-03-22T13:16:09.434Z,15.10
2023-03-22T13:31:09.338Z,14.70
2023-03-22T13:46:09.457Z,12.20
2023-03-22T14:01:09.400Z,11.00
2023-03-22T14:16:09.427Z,12.10
2023-03-22T15:01:09.582Z,19.40
2023-03-22T15:16:09.591Z,14.40
2023-03-22T15:31:09.491Z,13.20
2023-03-22T15:46:09.533Z,12.70
2023-03-22T16:01:09.633Z,11.80
2023-03-22T16:16:09.546Z,10.80
2023-03-22T16:31:09.729Z,9.80
2023-03-22T16:46:09.567Z,9.90
2023-03-22T17:01:09.599Z,9.50
2023-03-22T17:17:09.616Z,8.10
2023-03-22T17:33:10.348Z,10.40
2023-03-22T17:48:09.663Z,8.00
2023-03-22T18:03:09.644Z,7.90
2023-03-22T18:17:09.692Z,9.00
2023-03-22T18:31:09.692Z,8.80
2023-03-22T18:45:10.574Z,7.60
2023-03-22T18:59:09.688Z,6.45
2023-03-22T19:13:09.737Z,8.70
2023-03-22T19:27:17.610Z,5.80
2023-03-22T19:41:35.845Z,7.20
2023-03-22T19:56:09.758Z,7.10
2023-03-22T20:10:09.780Z,12.30
2023-03-22T20:24:09.775Z,13.20
2023-03-22T20:38:09.809Z,11.60
2023-03-22T20:52:09.840Z,11.15
2023-03-22T21:06:09.828Z,11.70
2023-03-22T21:20:09.814Z,7.85
2023-03-22T21:34:09.874Z,9.20
2023-03-22T21:48:09.884Z,9.20
2023-03-22T22:02:09.841Z,8.90
2023-03-22T22:16:09.887Z,9.50
2023-03-22T22:30:09.905Z,7.70
2023-03-22T22:44:09.909Z,6.70
2023-03-22T22:58:09.944Z,8.00
2023-03-22T23:12:09.951Z,6.75
2023-03-22T23:26:09.949Z,6.65
2023-03-22T23:40:09.970Z,6.80
2023-03-22T23:54:09.973Z,6.65
